Time;durP1;ratioP1;P1;durP2;ratioP2;P2;SDS_P1;SDS_P2;PMS_P1;PMS_P2;Temp;Humidity;BMP_temperature;BMP_pressure;BME280_temperature;BME280_humidity;BME280_pressure;Samples;Min_cycle;Max_cycle;Signal;HPM_P1;HPM_P2
2022/09/28 00:00:55;;;;;;;8.53;4.53;;;9.40;84.40;;;;;;5049071;28;20153;-74
2022/09/28 00:03:23;;;;;;;9.63;5.10;;;9.40;84.50;;;;;;5050415;28;20351;-74
2022/09/28 00:05:50;;;;;;;9.70;4.82;;;9.40;84.40;;;;;;5050675;28;20102;-74
2022/09/28 00:08:17;;;;;;;10.27;5.35;;;9.40;84.40;;;;;;5049304;28;20132;-74
2022/09/28 00:10:45;;;;;;;11.55;5.10;;;9.40;84.40;;;;;;5032195;28;20515;-74
2022/09/28 00:13:12;;;;;;;10.13;5.33;;;9.40;84.50;;;;;;5048934;28;20070;-74
2022/09/28 00:15:38;;;;;;;11.02;5.53;;;9.40;84.60;;;;;;5049160;28;20833;-74
2022/09/28 00:18:05;;;;;;;10.55;6.15;;;9.40;84.60;;;;;;5050271;28;20488;-75
2022/09/28 00:20:34;;;;;;;11.55;5.85;;;9.30;84.60;;;;;;5048573;28;20053;-74
2022/09/28 00:23:01;;;;;;;12.35;6.35;;;9.30;84.60;;;;;;5050477;28;20057;-75
2022/09/28 00:25:28;;;;;;;17.60;6.77;;;9.30;84.60;;;;;;5050166;28;20077;-74
2022/09/28 00:27:56;;;;;;;12.07;5.68;;;9.40;84.60;;;;;;5048663;28;20846;-74
2022/09/28 00:30:23;;;;;;;12.68;6.50;;;9.40;84.60;;;;;;5032111;28;20076;-74
2022/09/28 00:32:50;;;;;;;12.13;6.25;;;9.40;84.60;;;;;;5034817;28;20049;-75
2022/09/28 00:35:17;;;;;;;11.82;6.40;;;9.40;84.60;;;;;;5052245;28;20136;-74
2022/09/28 00:37:47;;;;;;;13.30;6.60;;;9.30;84.70;;;;;;5035912;28;20543;-74
2022/09/28 00:40:14;;;;;;;12.38;6.20;;;9.30;84.60;;;;;;5035739;28;20299;-74
2022/09/28 00:42:41;;;;;;;14.30;6.90;;;9.30;84.70;;;;;;5052614;28;20061;-74
2022/09/28 00:45:09;;;;;;;11.60;6.43;;;9.30;84.60;;;;;;5035961;28;20136;-74
2022/09/28 00:47:50;;;;;;;12.23;6.38;;;9.30;84.70;;;;;;5052086;28;20077;-74
2022/09/28 00:50:22;;;;;;;12.07;6.87;;;9.30;84.70;;;;;;5051708;28;20132;-74
2022/09/28 00:52:53;;;;;;;14.00;7.05;;;9.40;84.70;;;;;;5053876;28;20249;-74
2022/09/28 00:55:26;;;;;;;13.15;6.82;;;9.30;84.70;;;;;;5035580;28;20136;-74
2022/09/28 00:57:57;;;;;;;13.60;7.05;;;9.30;84.70;;;;;;5053064;28;20053;-74
2022/09/28 01:00:25;;;;;;;12.23;6.90;;;9.30;84.70;;;;;;5035372;28;20057;-73
2022/09/28 01:02:52;;;;;;;12.73;7.23;;;9.30;84.70;;;;;;5035231;28;20104;-74
2022/09/28 01:05:21;;;;;;;13.00;7.00;;;9.40;84.80;;;;;;5051940;28;20252;-74
2022/09/28 01:07:51;;;;;;;12.88;6.68;;;9.30;84.80;;;;;;5035354;28;20053;-74
2022/09/28 01:10:18;;;;;;;12.35;6.93;;;9.30;84.80;;;;;;5034869;28;20096;-74
2022/09/28 01:12:45;;;;;;;15.00;7.25;;;9.30;84.70;;;;;;5051954;28;20461;-74
2022/09/28 01:15:13;;;;;;;15.43;7.40;;;9.30;84.80;;;;;;5051836;28;20057;-74
2022/09/28 01:17:57;;;;;;;12.75;6.90;;;9.30;84.80;;;;;;5051770;28;20261;-74
2022/09/28 01:20:58;;;;;;;15.82;7.05;;;9.30;84.90;;;;;;5035155;28;20052;-74
2022/09/28 01:23:54;;;;;;;14.95;7.72;;;9.30;84.90;;;;;;5028334;28;20140;-74
2022/09/28 01:26:39;;;;;;;12.98;7.38;;;9.30;85.00;;;;;;5022697;28;20050;-74
2022/09/28 01:29:14;;;;;;;13.60;6.77;;;9.30;85.00;;;;;;5051409;28;20059;-74
2022/09/28 01:31:46;;;;;;;12.63;7.32;;;9.30;85.00;;;;;;5051452;28;20283;-74
2022/09/28 01:34:17;;;;;;;13.07;7.55;;;9.30;84.90;;;;;;5034684;28;20049;-74
2022/09/28 01:36:48;;;;;;;14.35;7.43;;;9.30;84.90;;;;;;5053061;28;20115;-74
2022/09/28 01:39:20;;;;;;;13.27;6.97;;;9.40;84.90;;;;;;5034445;28;20492;-74
2022/09/28 01:41:52;;;;;;;13.27;7.30;;;9.40;84.80;;;;;;5034821;28;20361;-74
2022/09/28 01:44:22;;;;;;;14.48;7.35;;;9.30;84.90;;;;;;5050729;28;20296;-74
2022/09/28 01:46:51;;;;;;;13.82;7.60;;;9.30;84.90;;;;;;5034642;28;20053;-74
2022/09/28 01:49:21;;;;;;;13.52;7.47;;;9.40;84.90;;;;;;5051992;28;20408;-74
2022/09/28 01:51:53;;;;;;;14.00;7.22;;;9.40;84.90;;;;;;5051186;28;20060;-74
2022/09/28 01:54:25;;;;;;;13.83;7.40;;;9.40;84.80;;;;;;5051270;28;20045;-74
2022/09/28 01:56:58;;;;;;;13.23;7.38;;;9.40;84.80;;;;;;5034527;28;20246;-74
2022/09/28 01:59:28;;;;;;;12.68;7.30;;;9.40;84.70;;;;;;5034363;28;20204;-74
2022/09/28 02:02:01;;;;;;;12.85;6.85;;;9.40;84.70;;;;;;5051020;28;20108;-74
2022/09/28 02:04:33;;;;;;;12.57;7.30;;;9.40;84.70;;;;;;5033977;28;20076;-74
2022/09/28 02:07:09;;;;;;;12.07;7.00;;;9.40;84.70;;;;;;5051040;28;20045;-74
2022/09/28 02:09:44;;;;;;;13.63;7.40;;;9.40;84.70;;;;;;5034307;28;20256;-75
2022/09/28 02:12:19;;;;;;;13.68;7.55;;;9.40;84.70;;;;;;5034580;28;20508;-74
2022/09/28 02:14:49;;;;;;;12.38;6.63;;;9.40;84.60;;;;;;5034405;28;20055;-74
2022/09/28 02:17:16;;;;;;;13.57;7.03;;;9.40;84.50;;;;;;5034610;28;20088;-74
2022/09/28 02:19:47;;;;;;;16.43;8.60;;;9.40;84.60;;;;;;5050711;28;20077;-75
2022/09/28 02:22:24;;;;;;;15.65;8.48;;;9.40;84.60;;;;;;5034073;28;20272;-74
2022/09/28 02:24:56;;;;;;;18.55;9.60;;;9.40;84.70;;;;;;5050423;28;20049;-74
2022/09/28 02:27:34;;;;;;;18.10;9.95;;;9.40;84.80;;;;;;5050257;28;20046;-74
2022/09/28 02:30:02;;;;;;;22.88;10.25;;;9.40;84.70;;;;;;5033109;28;20071;-74
2022/09/28 02:32:33;;;;;;;22.13;9.73;;;9.40;84.70;;;;;;5048786;28;20100;-74
2022/09/28 02:35:00;;;;;;;17.35;9.25;;;9.40;84.70;;;;;;5032255;28;20370;-75
2022/09/28 02:37:28;;;;;;;17.98;9.65;;;9.40;84.60;;;;;;5032056;28;20132;-74
2022/09/28 02:39:54;;;;;;;17.48;9.48;;;9.30;84.70;;;;;;5031987;28;20073;-74
2022/09/28 02:42:26;;;;;;;18.92;9.23;;;9.30;84.70;;;;;;5032034;28;20049;-74
2022/09/28 02:45:08;;;;;;;19.33;8.87;;;9.30;84.80;;;;;;5032915;28;20041;-74
2022/09/28 02:47:49;;;;;;;17.77;8.85;;;9.20;84.80;;;;;;5050371;28;20312;-74
2022/09/28 02:50:27;;;;;;;18.08;9.15;;;9.20;84.90;;;;;;5033593;28;20141;-74
2022/09/28 02:53:16;;;;;;;19.48;9.02;;;9.20;84.90;;;;;;5050030;28;20594;-74
2022/09/28 02:55:57;;;;;;;20.17;9.52;;;9.20;84.90;;;;;;5032424;28;20045;-74
2022/09/28 02:58:35;;;;;;;20.10;9.27;;;9.20;84.90;;;;;;5033603;28;20137;-74
2022/09/28 03:01:14;;;;;;;17.08;9.18;;;9.20;85.00;;;;;;5033244;28;20727;-74
2022/09/28 03:03:48;;;;;;;16.70;8.63;;;9.20;85.00;;;;;;5033206;28;20136;-74
2022/09/28 03:06:23;;;;;;;17.23;8.30;;;9.20;85.10;;;;;;5033727;28;20300;-74
2022/09/28 03:08:58;;;;;;;17.48;8.32;;;9.10;85.10;;;;;;5033130;28;20049;-74
2022/09/28 03:11:33;;;;;;;17.93;8.63;;;9.10;85.10;;;;;;5033368;28;20042;-74
2022/09/28 03:14:01;;;;;;;26.08;8.73;;;9.10;85.00;;;;;;5033868;28;20288;-74
2022/09/28 03:16:43;;;;;;;21.10;9.27;;;9.10;85.00;;;;;;5050092;28;20049;-74
2022/09/28 03:19:11;;;;;;;19.63;9.13;;;9.10;85.10;;;;;;5032926;28;20534;-74
2022/09/28 03:21:38;;;;;;;19.98;9.63;;;9.10;85.10;;;;;;5049355;28;20066;-74
2022/09/28 03:24:08;;;;;;;16.17;9.17;;;9.10;85.10;;;;;;5033327;28;20413;-74
2022/09/28 03:26:34;;;;;;;19.88;9.15;;;9.10;85.10;;;;;;5033217;28;20299;-74
2022/09/28 03:29:02;;;;;;;17.80;9.02;;;9.10;85.10;;;;;;5032921;28;20099;-74
2022/09/28 03:31:29;;;;;;;18.60;8.82;;;9.10;85.00;;;;;;5049418;28;20052;-74
2022/09/28 03:33:57;;;;;;;18.35;8.65;;;9.10;85.00;;;;;;5033135;28;20111;-74
2022/09/28 03:36:25;;;;;;;16.43;8.67;;;9.00;85.00;;;;;;5032831;28;20056;-73
2022/09/28 03:38:53;;;;;;;20.02;9.25;;;9.00;85.00;;;;;;5032781;28;20257;-74
2022/09/28 03:41:20;;;;;;;15.40;7.95;;;9.00;85.10;;;;;;5032931;28;20042;-74
2022/09/28 03:43:47;;;;;;;17.95;7.90;;;9.00;85.10;;;;;;5051041;28;20149;-74
2022/09/28 03:46:14;;;;;;;27.95;9.45;;;9.00;85.10;;;;;;5032759;28;20060;-74
2022/09/28 03:48:47;;;;;;;30.80;9.17;;;9.00;85.10;;;;;;5032593;28;20128;-74
2022/09/28 03:51:15;;;;;;;26.23;8.60;;;9.00;85.10;;;;;;5032669;28;20403;-74
2022/09/28 03:53:42;;;;;;;15.88;7.78;;;9.00;85.10;;;;;;5032991;28;20143;-74
2022/09/28 03:56:13;;;;;;;17.33;8.60;;;8.90;85.10;;;;;;5032916;28;20057;-74
2022/09/28 03:58:41;;;;;;;32.35;8.93;;;8.90;85.10;;;;;;5032714;28;20046;-74
2022/09/28 04:01:12;;;;;;;17.13;8.30;;;8.90;85.10;;;;;;5032193;28;20092;-74
2022/09/28 04:03:40;;;;;;;23.55;8.38;;;8.90;85.10;;;;;;5049258;28;20281;-74
2022/09/28 04:06:07;;;;;;;29.77;9.25;;;8.80;85.20;;;;;;5048874;28;20056;-74
2022/09/28 04:08:36;;;;;;;16.42;7.47;;;8.80;85.20;;;;;;5049430;28;20060;-74
2022/09/28 04:11:04;;;;;;;21.33;8.20;;;8.80;85.20;;;;;;5048970;28;20054;-74
2022/09/28 04:13:31;;;;;;;24.73;8.90;;;8.80;85.30;;;;;;5032312;28;20049;-74
2022/09/28 04:16:00;;;;;;;22.77;8.73;;;8.80;85.30;;;;;;5032287;28;20264;-74
2022/09/28 04:18:30;;;;;;;21.15;8.02;;;8.70;85.30;;;;;;5032479;28;20045;-74
2022/09/28 04:21:26;;;;;;;28.17;8.00;;;8.70;85.40;;;;;;5035242;28;20422;-74
2022/09/28 04:24:12;;;;;;;25.92;7.55;;;8.70;85.50;;;;;;5031959;28;20112;-74
2022/09/28 04:26:38;;;;;;;16.43;7.40;;;8.70;85.50;;;;;;5048958;28;20049;-74
2022/09/28 04:29:16;;;;;;;18.52;6.88;;;8.60;85.50;;;;;;5032260;28;20264;-74
2022/09/28 04:31:51;;;;;;;20.50;7.40;;;8.60;85.40;;;;;;5032108;28;20131;-74
2022/09/28 04:34:21;;;;;;;37.30;7.95;;;8.60;85.50;;;;;;5049038;28;20054;-74
2022/09/28 04:36:50;;;;;;;19.25;7.38;;;8.60;85.50;;;;;;5048791;28;20136;-74
2022/09/28 04:39:18;;;;;;;31.83;7.40;;;8.60;85.50;;;;;;5048732;28;20105;-74
2022/09/28 04:41:49;;;;;;;18.08;6.95;;;8.60;85.50;;;;;;5032036;28;20272;-74
2022/09/28 04:44:16;;;;;;;30.60;7.25;;;8.60;85.50;;;;;;5048674;28;20046;-74
2022/09/28 04:46:46;;;;;;;20.00;6.30;;;8.60;85.50;;;;;;5049086;28;20046;-74
2022/09/28 04:49:28;;;;;;;52.38;7.07;;;8.50;85.50;;;;;;5048444;28;20042;-74
2022/09/28 04:51:58;;;;;;;18.10;5.93;;;8.50;85.40;;;;;;5048752;28;20041;-74
2022/09/28 04:54:26;;;;;;;50.55;7.22;;;8.50;85.40;;;;;;5048532;28;20739;-74
2022/09/28 04:56:54;;;;;;;18.80;6.13;;;8.40;85.40;;;;;;5032049;28;20594;-74
2022/09/28 04:59:21;;;;;;;40.42;6.47;;;8.40;85.50;;;;;;5031477;28;20056;-74
2022/09/28 05:01:48;;;;;;;33.05;6.32;;;8.40;85.50;;;;;;5048122;28;20524;-74
2022/09/28 05:04:18;;;;;;;32.43;7.00;;;8.30;85.50;;;;;;5048552;28;20053;-74
2022/09/28 05:06:57;;;;;;;44.63;7.60;;;8.30;85.50;;;;;;5048760;28;20255;-74
2022/09/28 05:09:26;;;;;;;19.55;6.63;;;8.30;85.60;;;;;;5032043;28;20155;-74
2022/09/28 05:11:53;;;;;;;17.48;6.72;;;8.20;85.60;;;;;;5031992;28;20674;-74
2022/09/28 05:14:23;;;;;;;29.42;7.05;;;8.20;85.70;;;;;;5048686;28;20219;-74
2022/09/28 05:16:51;;;;;;;18.00;7.23;;;8.20;85.70;;;;;;5048115;28;20522;-74
2022/09/28 05:19:37;;;;;;;15.07;7.03;;;8.20;85.70;;;;;;5050887;28;20256;-74
2022/09/28 05:22:06;;;;;;;23.17;7.90;;;8.20;85.70;;;;;;5051903;28;20053;-74
2022/09/28 05:24:40;;;;;;;16.55;7.15;;;8.20;85.80;;;;;;5034709;28;20045;-74
2022/09/28 05:27:07;;;;;;;19.30;6.55;;;8.20;85.80;;;;;;5035070;28;20053;-75
2022/09/28 05:29:34;;;;;;;20.33;7.80;;;8.20;85.90;;;;;;5051654;28;20075;-74
2022/09/28 05:32:20;;;;;;;15.13;6.60;;;8.10;85.90;;;;;;5051735;28;20261;-74
2022/09/28 05:34:59;;;;;;;17.08;7.43;;;8.10;86.00;;;;;;5034901;28;20049;-74
2022/09/28 05:37:31;;;;;;;15.13;7.75;;;8.10;86.00;;;;;;5035160;28;20060;-74
2022/09/28 05:39:59;;;;;;;16.23;7.50;;;8.10;86.20;;;;;;5034979;28;20057;-74
2022/09/28 05:42:26;;;;;;;18.00;7.47;;;8.10;86.20;;;;;;5034803;28;20115;-74
2022/09/28 05:44:54;;;;;;;15.85;7.03;;;8.10;86.20;;;;;;5035019;28;20272;-74
2022/09/28 05:47:21;;;;;;;14.57;6.72;;;8.10;86.30;;;;;;5034766;28;20049;-74
2022/09/28 05:49:48;;;;;;;16.20;7.05;;;8.10;86.30;;;;;;5035016;28;20145;-74
2022/09/28 05:52:15;;;;;;;18.65;7.40;;;8.10;86.40;;;;;;5034870;28;20133;-74
2022/09/28 05:54:42;;;;;;;15.13;7.53;;;8.10;86.40;;;;;;5034558;28;20518;-74
2022/09/28 05:57:50;;;;;;;16.67;7.45;;;8.10;86.50;;;;;;5037527;28;20244;-74
2022/09/28 06:00:18;;;;;;;15.27;7.70;;;8.10;86.50;;;;;;5051062;28;20046;-74
2022/09/28 06:02:56;;;;;;;17.00;7.75;;;8.10;86.50;;;;;;5034625;28;20041;-74
2022/09/28 06:05:23;;;;;;;18.50;7.72;;;8.10;86.50;;;;;;5051637;28;20053;-74
2022/09/28 06:07:50;;;;;;;19.13;8.17;;;8.20;86.50;;;;;;5035100;28;20933;-74
2022/09/28 06:10:17;;;;;;;16.05;7.72;;;8.20;86.60;;;;;;5034644;28;20253;-74
2022/09/28 06:12:46;;;;;;;27.83;7.95;;;8.20;86.60;;;;;;5034769;28;20156;-74
2022/09/28 06:15:16;;;;;;;27.92;8.65;;;8.20;86.60;;;;;;5034085;28;20058;-74
2022/09/28 06:17:45;;;;;;;18.83;7.90;;;8.20;86.60;;;;;;5034340;28;20053;-74
2022/09/28 06:20:34;;;;;;;18.37;7.80;;;8.20;86.70;;;;;;5050728;28;20157;-74
2022/09/28 06:23:18;;;;;;;22.95;8.48;;;8.20;86.70;;;;;;5051081;28;20276;-74
2022/09/28 06:25:45;;;;;;;18.77;8.00;;;8.20;86.60;;;;;;5034506;28;20414;-74
2022/09/28 06:28:14;;;;;;;20.98;7.78;;;8.20;86.70;;;;;;5034569;28;20096;-74
2022/09/28 06:30:42;;;;;;;17.52;8.90;;;8.20;86.70;;;;;;5050065;28;20056;-74
2022/09/28 06:33:15;;;;;;;21.73;8.23;;;8.20;86.90;;;;;;5033273;28;20057;-74
2022/09/28 06:35:42;;;;;;;19.35;8.15;;;8.20;86.90;;;;;;5046585;28;20343;-74
2022/09/28 06:38:09;;;;;;;18.55;8.18;;;8.20;87.00;;;;;;5032258;28;20148;-74
2022/09/28 06:40:38;;;;;;;19.17;8.23;;;8.20;87.20;;;;;;5030390;28;20057;-74
2022/09/28 06:43:09;;;;;;;21.05;9.07;;;8.20;87.20;;;;;;5030354;28;20042;-74
2022/09/28 06:45:54;;;;;;;19.13;7.67;;;8.20;87.20;;;;;;5046814;28;20495;-74
2022/09/28 06:48:26;;;;;;;22.98;8.52;;;8.20;87.10;;;;;;5029612;28;20250;-74
2022/09/28 06:50:53;;;;;;;17.42;7.93;;;8.20;87.10;;;;;;5046374;28;20045;-74
2022/09/28 06:53:38;;;;;;;17.15;8.30;;;8.20;87.20;;;;;;5031244;28;20045;-74
2022/09/28 06:56:21;;;;;;;16.35;7.68;;;8.30;87.30;;;;;;5047487;28;20085;-74
2022/09/28 06:58:48;;;;;;;17.73;8.60;;;8.30;87.30;;;;;;5032760;28;20053;-74
2022/09/28 07:01:15;;;;;;;17.30;8.20;;;8.30;87.20;;;;;;5048496;28;20405;-74
2022/09/28 07:03:52;;;;;;;19.52;8.43;;;8.30;87.30;;;;;;5031155;28;20046;-74
2022/09/28 07:06:47;;;;;;;20.98;9.18;;;8.30;87.40;;;;;;5049360;28;20614;-74
2022/09/28 07:09:45;;;;;;;16.33;7.95;;;8.30;87.50;;;;;;5049599;28;20462;-74
2022/09/28 07:12:22;;;;;;;23.50;8.63;;;8.30;87.40;;;;;;5032276;28;20535;-74
2022/09/28 07:15:00;;;;;;;16.50;7.70;;;8.40;87.50;;;;;;5030593;28;20707;-74
2022/09/28 07:17:28;;;;;;;14.70;6.95;;;8.40;87.60;;;;;;5030322;28;20042;-74
2022/09/28 07:20:03;;;;;;;15.55;7.45;;;8.40;87.60;;;;;;5045698;28;20069;-74
2022/09/28 07:22:30;;;;;;;15.32;7.07;;;8.40;87.60;;;;;;5031604;28;20062;-75
2022/09/28 07:24:57;;;;;;;17.27;7.77;;;8.40;87.60;;;;;;5031533;28;20120;-74
2022/09/28 07:27:43;;;;;;;14.35;7.05;;;8.40;87.80;;;;;;5048105;28;20395;-74
2022/09/28 07:30:43;;;;;;;15.95;7.43;;;8.50;87.80;;;;;;5020005;28;20049;-73
2022/09/28 07:33:17;;;;;;;15.40;7.32;;;8.50;87.90;;;;;;5038618;28;20100;-73
2022/09/28 07:35:55;;;;;;;15.48;7.70;;;8.50;88.00;;;;;;5046746;28;20073;-73
2022/09/28 07:38:26;;;;;;;17.30;8.13;;;8.50;88.00;;;;;;5030349;28;20060;-74
2022/09/28 07:41:12;;;;;;;18.88;9.98;;;8.50;88.00;;;;;;5029065;28;20260;-74
2022/09/28 07:43:49;;;;;;;14.95;7.75;;;8.60;88.00;;;;;;5048219;28;20053;-73
2022/09/28 07:46:16;;;;;;;17.05;8.15;;;8.60;88.00;;;;;;5031625;28;20068;-74
2022/09/28 07:49:04;;;;;;;16.83;7.70;;;8.60;88.00;;;;;;5029396;28;20060;-74
2022/09/28 07:51:35;;;;;;;16.73;7.80;;;8.60;88.10;;;;;;5047890;28;20060;-73
2022/09/28 07:54:23;;;;;;;16.77;8.02;;;8.60;88.10;;;;;;5030317;28;20250;-74
2022/09/28 07:57:09;;;;;;;15.68;7.50;;;8.60;88.20;;;;;;5048246;28;20060;-73
2022/09/28 07:59:43;;;;;;;16.40;8.00;;;8.60;88.20;;;;;;5024263;28;20049;-72
2022/09/28 08:02:40;;;;;;;15.73;6.78;;;8.70;88.30;;;;;;5047351;28;20053;-73
2022/09/28 08:05:09;;;;;;;17.27;7.53;;;8.70;88.30;;;;;;5031465;28;20511;-74
2022/09/28 08:07:38;;;;;;;17.27;8.07;;;8.80;88.50;;;;;;5031368;28;20245;-74
2022/09/28 08:10:08;;;;;;;18.05;7.93;;;8.80;88.40;;;;;;5024235;28;20061;-73
2022/09/28 08:12:56;;;;;;;17.00;7.65;;;8.90;88.40;;;;;;4993697;28;20049;-73
2022/09/28 08:15:41;;;;;;;15.35;7.07;;;8.90;88.60;;;;;;5049484;28;20096;-73
2022/09/28 08:18:19;;;;;;;14.50;7.03;;;9.00;88.50;;;;;;5030826;28;20147;-73
2022/09/28 08:23:32;;;;;;;14.45;6.47;;;9.00;88.60;;;;;;5046191;28;20048;-74
2022/09/28 08:26:00;;;;;;;12.50;6.20;;;9.10;88.60;;;;;;5049641;28;20058;-74
2022/09/28 08:28:27;;;;;;;14.50;6.70;;;9.20;88.50;;;;;;5029528;28;20579;-74
2022/09/28 08:31:00;;;;;;;16.03;7.40;;;9.20;88.50;;;;;;5030325;28;20049;-73
2022/09/28 08:33:57;;;;;;;13.13;5.90;;;9.20;88.60;;;;;;5029965;28;20253;-73
2022/09/28 08:36:43;;;;;;;14.27;6.55;;;9.20;88.50;;;;;;5046580;28;20634;-74
2022/09/28 08:39:40;;;;;;;15.52;6.80;;;9.20;88.50;;;;;;5046539;28;20143;-74
2022/09/28 08:42:41;;;;;;;15.05;6.97;;;9.40;88.50;;;;;;5032750;28;20061;-73
2022/09/28 08:45:30;;;;;;;12.60;5.70;;;9.40;88.60;;;;;;5048757;28;20056;-74
2022/09/28 08:51:30;;;;;;;13.50;5.80;;;9.40;88.60;;;;;;5033335;28;20165;-74
2022/09/28 08:54:17;;;;;;;14.00;6.45;;;9.50;88.50;;;;;;5032368;28;20136;-73
2022/09/28 08:56:57;;;;;;;14.50;6.65;;;9.50;88.50;;;;;;5041074;28;20058;-73
2022/09/28 08:59:26;;;;;;;13.97;5.97;;;9.60;88.60;;;;;;5032810;28;20046;-73
2022/09/28 09:02:03;;;;;;;11.20;5.25;;;9.60;88.50;;;;;;5051189;28;20284;-74
2022/09/28 09:04:33;;;;;;;13.35;6.10;;;9.60;88.40;;;;;;5032495;28;20049;-76
2022/09/28 09:07:21;;;;;;;14.73;6.72;;;9.70;88.40;;;;;;5050939;28;20071;-75
2022/09/28 09:10:05;;;;;;;14.23;6.38;;;9.70;88.50;;;;;;5034540;28;20506;-75
2022/09/28 09:12:44;;;;;;;15.17;6.50;;;9.80;88.70;;;;;;5034323;28;20045;-75
2022/09/28 09:15:38;;;;;;;12.50;5.65;;;9.80;88.70;;;;;;5024106;28;20277;-73
2022/09/28 09:18:27;;;;;;;12.57;5.50;;;9.90;88.70;;;;;;5051042;28;20138;-75
2022/09/28 09:21:10;;;;;;;12.27;5.28;;;10.00;88.50;;;;;;5033404;28;20046;-74
2022/09/28 09:23:52;;;;;;;11.85;4.82;;;10.00;88.50;;;;;;5027336;28;20409;-74
2022/09/28 09:26:20;;;;;;;11.40;5.33;;;10.10;88.50;;;;;;5050340;28;20045;-74
2022/09/28 09:29:09;;;;;;;11.23;5.20;;;10.10;88.40;;;;;;5034199;28;20265;-75
2022/09/28 09:31:58;;;;;;;11.45;5.28;;;10.20;88.20;;;;;;5042861;28;20050;-74
2022/09/28 09:34:41;;;;;;;14.13;7.38;;;10.20;88.20;;;;;;5031052;28;20662;-74
2022/09/28 09:37:41;;;;;;;10.55;5.38;;;10.20;88.10;;;;;;5031474;28;20056;-73
2022/09/28 09:40:42;;;;;;;10.77;5.17;;;10.30;88.10;;;;;;4997903;28;20053;-74
2022/09/28 09:43:58;;;;;;;14.18;5.90;;;10.40;88.10;;;;;;5046020;28;20253;-74
2022/09/28 09:46:51;;;;;;;11.30;5.15;;;10.50;88.00;;;;;;5049327;28;20490;-74
2022/09/28 09:49:26;;;;;;;11.15;5.05;;;10.50;88.00;;;;;;5030594;28;20061;-73
2022/09/28 09:51:59;;;;;;;10.98;4.45;;;10.60;87.80;;;;;;5032221;28;20137;-74
2022/09/28 09:54:33;;;;;;;9.93;4.80;;;10.70;87.60;;;;;;5032155;28;20546;-74
2022/09/28 09:57:05;;;;;;;9.60;4.18;;;10.80;87.20;;;;;;5041232;28;20633;-75
2022/09/28 10:00:01;;;;;;;11.95;5.65;;;10.80;87.10;;;;;;5045200;28;20053;-75
2022/09/28 10:03:03;;;;;;;8.25;3.70;;;10.90;87.00;;;;;;5032174;28;20050;-75
2022/09/28 10:05:40;;;;;;;6.30;3.30;;;11.00;87.00;;;;;;5023475;28;20137;-75
2022/09/28 10:08:15;;;;;;;7.37;3.30;;;11.10;86.50;;;;;;5031937;28;20961;-75
2022/09/28 10:10:50;;;;;;;7.60;3.00;;;11.10;85.80;;;;;;5031719;28;20789;-75
2022/09/28 10:13:19;;;;;;;7.63;3.65;;;11.10;85.50;;;;;;5048437;28;20049;-75
2022/09/28 10:15:46;;;;;;;9.35;3.60;;;11.30;85.30;;;;;;5032884;28;20538;-75
2022/09/28 10:18:28;;;;;;;7.57;3.72;;;11.30;85.10;;;;;;5033715;28;20042;-75
2022/09/28 10:21:14;;;;;;;9.00;3.73;;;11.30;84.80;;;;;;5049876;28;20176;-75
2022/09/28 10:23:57;;;;;;;7.32;3.67;;;11.30;84.70;;;;;;5032361;28;20306;-75
2022/09/28 10:26:33;;;;;;;7.55;3.05;;;11.40;84.90;;;;;;5023734;28;20054;-75
2022/09/28 10:29:03;;;;;;;5.82;2.50;;;11.40;85.10;;;;;;5033136;28;20416;-75
2022/09/28 10:31:38;;;;;;;4.55;1.70;;;11.50;85.00;;;;;;5032903;28;20052;-75
2022/09/28 10:34:13;;;;;;;4.33;1.70;;;11.50;84.40;;;;;;5019601;28;20430;-74
2022/09/28 10:36:49;;;;;;;5.05;1.77;;;11.60;83.90;;;;;;5030839;28;20252;-75
2022/09/28 10:39:32;;;;;;;3.40;1.30;;;11.60;83.50;;;;;;5031719;28;20052;-75
2022/09/28 10:42:03;;;;;;;5.00;1.83;;;11.70;83.00;;;;;;5039296;28;20046;-75
2022/09/28 10:44:33;;;;;;;3.83;1.50;;;11.70;83.00;;;;;;5032293;28;20057;-74
2022/09/28 10:47:18;;;;;;;3.50;1.03;;;11.70;82.80;;;;;;5032300;28;20487;-75
2022/09/28 10:49:50;;;;;;;4.32;1.10;;;11.70;82.70;;;;;;5032855;28;20344;-74
2022/09/28 10:52:33;;;;;;;3.28;0.90;;;11.80;82.80;;;;;;5031937;28;20578;-74
2022/09/28 10:55:00;;;;;;;2.95;0.82;;;11.90;82.30;;;;;;5047834;28;20048;-75
2022/09/28 10:57:29;;;;;;;4.10;1.00;;;11.90;82.10;;;;;;5030496;28;20054;-73
2022/09/28 11:00:06;;;;;;;2.63;0.70;;;12.00;81.60;;;;;;5031145;28;20053;-74
2022/09/28 11:02:48;;;;;;;3.83;1.00;;;12.00;80.90;;;;;;5032013;28;20275;-74
2022/09/28 11:05:26;;;;;;;2.80;0.68;;;12.10;80.10;;;;;;5046242;28;20155;-74
2022/09/28 11:07:56;;;;;;;3.47;0.75;;;12.10;79.80;;;;;;5048578;28;20045;-73
2022/09/28 11:10:31;;;;;;;3.60;0.70;;;12.10;79.60;;;;;;5027851;28;20046;-74
2022/09/28 11:13:09;;;;;;;3.67;0.80;;;12.20;79.40;;;;;;5030087;28;20520;-75
2022/09/28 11:15:42;;;;;;;3.22;0.75;;;12.20;79.10;;;;;;5030544;28;20283;-74
2022/09/28 11:18:25;;;;;;;4.15;0.70;;;12.20;78.50;;;;;;5048182;28;20057;-74
2022/09/28 11:21:07;;;;;;;3.83;0.70;;;12.20;79.10;;;;;;5030443;28;20100;-75
2022/09/28 11:23:35;;;;;;;3.55;0.60;;;12.30;78.70;;;;;;5030581;28;20056;-75
2022/09/28 11:26:16;;;;;;;2.63;0.60;;;12.30;79.10;;;;;;5032067;28;20144;-73
2022/09/28 11:28:49;;;;;;;3.00;0.50;;;12.40;79.30;;;;;;5031485;28;20253;-73
2022/09/28 11:31:28;;;;;;;4.07;0.68;;;12.50;79.10;;;;;;5029132;28;20053;-74
2022/09/28 11:34:14;;;;;;;2.72;0.50;;;12.50;78.30;;;;;;5030492;28;20561;-73
2022/09/28 11:37:18;;;;;;;2.25;0.50;;;12.50;78.00;;;;;;5030716;28;20115;-73
2022/09/28 11:39:58;;;;;;;3.03;0.60;;;12.50;77.80;;;;;;5025572;28;20486;-73
2022/09/28 11:42:39;;;;;;;2.40;0.50;;;12.50;77.60;;;;;;5047662;28;20383;-73
2022/09/28 11:45:29;;;;;;;3.58;0.70;;;12.60;75.80;;;;;;5024970;28;20046;-73
2022/09/28 11:48:01;;;;;;;3.10;0.80;;;12.60;77.10;;;;;;5028599;28;20050;-73
2022/09/28 11:50:42;;;;;;;4.88;1.02;;;12.70;77.10;;;;;;5031707;28;20199;-74
2022/09/28 11:53:18;;;;;;;4.17;0.80;;;12.80;76.50;;;;;;5048297;28;20056;-74
2022/09/28 11:55:51;;;;;;;4.50;0.80;;;12.80;76.00;;;;;;5048442;28;20284;-74
2022/09/28 11:58:26;;;;;;;3.72;0.50;;;12.90;76.00;;;;;;5027369;28;20512;-74
2022/09/28 12:00:59;;;;;;;3.50;0.60;;;12.90;76.20;;;;;;5031987;28;20049;-74
2022/09/28 12:03:41;;;;;;;2.97;0.68;;;12.90;75.60;;;;;;5043471;28;20050;-74
2022/09/28 12:06:14;;;;;;;3.10;0.67;;;12.90;75.50;;;;;;5030889;28;20045;-74
2022/09/28 12:08:47;;;;;;;3.30;0.70;;;13.00;74.50;;;;;;5048043;28;20260;-73
2022/09/28 12:11:37;;;;;;;2.28;0.45;;;13.00;74.80;;;;;;5049366;28;20208;-73
2022/09/28 12:14:37;;;;;;;3.15;0.63;;;13.00;74.90;;;;;;5036900;28;20057;-74
2022/09/28 12:17:10;;;;;;;2.45;0.50;;;13.00;75.10;;;;;;5049332;28;20057;-74
2022/09/28 12:19:42;;;;;;;2.60;0.40;;;13.10;73.70;;;;;;5049202;28;20111;-74
2022/09/28 12:22:17;;;;;;;2.50;0.47;;;13.10;74.90;;;;;;5048092;28;20330;-74
2022/09/28 12:24:49;;;;;;;2.08;0.20;;;13.10;75.30;;;;;;5048019;28;20124;-74
2022/09/28 12:27:23;;;;;;;1.40;0.30;;;13.30;75.20;;;;;;5048333;28;20073;-75
2022/09/28 12:29:56;;;;;;;2.10;0.22;;;13.30;74.70;;;;;;5035161;28;20107;-74
2022/09/28 12:32:29;;;;;;;3.03;0.40;;;13.40;73.50;;;;;;5053267;28;20168;-74
2022/09/28 12:34:56;;;;;;;1.80;0.30;;;13.50;73.80;;;;;;5051537;28;20315;-74
2022/09/28 12:37:39;;;;;;;2.15;0.40;;;13.50;73.10;;;;;;5052401;28;20144;-74
2022/09/28 12:40:32;;;;;;;1.95;0.20;;;13.60;73.60;;;;;;5052041;28;20057;-75
2022/09/28 12:43:25;;;;;;;1.67;0.30;;;13.70;72.40;;;;;;5051302;28;20081;-74
2022/09/28 12:46:12;;;;;;;2.60;0.47;;;13.80;72.20;;;;;;5033338;28;20051;-75
2022/09/28 12:49:04;;;;;;;2.75;0.38;;;13.90;72.00;;;;;;5050236;28;20778;-74
2022/09/28 12:51:44;;;;;;;2.35;0.45;;;13.90;71.40;;;;;;5051124;28;20232;-74
2022/09/28 12:54:23;;;;;;;2.88;0.30;;;13.90;72.00;;;;;;5033594;28;20610;-74
2022/09/28 12:57:05;;;;;;;1.85;0.40;;;14.00;72.00;;;;;;5036364;28;20103;-74
2022/09/28 12:59:36;;;;;;;2.80;0.50;;;14.00;71.80;;;;;;5048202;28;20054;-74
2022/09/28 13:02:42;;;;;;;3.00;0.55;;;14.10;71.40;;;;;;5051275;28;20249;-76
2022/09/28 13:05:22;;;;;;;3.08;0.57;;;14.30;71.60;;;;;;5051376;28;21091;-74
2022/09/28 13:07:56;;;;;;;2.90;0.43;;;14.30;71.50;;;;;;5046429;28;20164;-75
2022/09/28 13:10:31;;;;;;;2.33;0.30;;;14.40;71.40;;;;;;5032155;28;20083;-76
2022/09/28 13:13:16;;;;;;;1.27;0.20;;;14.50;71.70;;;;;;5048565;28;20124;-75
2022/09/28 13:15:55;;;;;;;1.60;0.30;;;14.60;71.00;;;;;;5051742;28;20257;-75
2022/09/28 13:18:29;;;;;;;3.28;0.52;;;14.70;70.90;;;;;;5048270;28;20185;-74
2022/09/28 13:21:08;;;;;;;2.42;0.35;;;14.80;70.20;;;;;;5047776;28;20053;-76
2022/09/28 13:23:40;;;;;;;1.75;0.30;;;14.90;70.20;;;;;;5043852;28;20115;-75
2022/09/28 13:26:20;;;;;;;1.97;0.30;;;14.90;68.90;;;;;;5052476;28;20171;-76
2022/09/28 13:28:50;;;;;;;2.90;0.40;;;15.00;68.90;;;;;;5042726;28;20257;-76
2022/09/28 13:31:20;;;;;;;1.80;0.30;;;15.00;67.80;;;;;;5050743;28;20060;-75
2022/09/28 13:33:48;;;;;;;4.50;0.30;;;15.10;67.50;;;;;;5048963;28;20056;-75